Salem, New Jersey
Current Conditions -  °F | °C
As of 5:51 AM on Monday 20 Oct 2014 (Local Time) from KILG Reporting Station
Clear Clear  
Wind Chill: 37°   Ceiling: Unl
Heat Index: 37°   Visibility: 10mi
Dew Point: 35°   Wind: 0mph
Humidity: 93%   Direction: NA
Pressure: 30.13"   Gusts: NA
Location:  39.57°N, 75.47°W
Report Text: KILG 200951Z AUTO 00000KT 10SM CLR 03/02 A3013 RMK AO2 SLP201 T00280017
Loading
Personal Weather Stations






























Interactive Weather Map New forecast layout! Learn more

10-Day Weather Forecast

Advertisements
Track Severe Weather on mobile